createdAt,value
2023-02-03T00:02:04.853Z,0.10
2023-02-03T00:04:31.950Z,0.10
2023-02-03T00:06:59.007Z,0.10
2023-02-03T00:09:26.158Z,0.10
2023-02-03T00:11:54.019Z,0.10
2023-02-03T00:14:21.111Z,0.10
2023-02-03T00:16:48.264Z,0.10
2023-02-03T00:19:17.402Z,0.52
2023-02-03T00:21:45.007Z,0.10
2023-02-03T00:24:12.475Z,0.00
2023-02-03T00:26:43.965Z,0.10
2023-02-03T00:29:11.603Z,0.10
2023-02-03T00:31:39.083Z,0.10
2023-02-03T00:34:06.502Z,0.10
2023-02-03T00:36:33.587Z,0.25
2023-02-03T00:39:01.628Z,0.10
2023-02-03T00:41:34.166Z,0.10
2023-02-03T00:44:01.145Z,0.10
2023-02-03T00:46:28.113Z,0.10
2023-02-03T00:48:55.164Z,0.13
2023-02-03T00:51:22.272Z,0.10
2023-02-03T00:53:49.728Z,0.15
2023-02-03T00:56:16.693Z,0.10
2023-02-03T00:58:43.636Z,0.13
2023-02-03T01:01:10.841Z,0.15
2023-02-03T01:03:38.852Z,0.10
2023-02-03T01:06:19.134Z,0.10
2023-02-03T01:08:46.854Z,0.10
2023-02-03T01:11:18.150Z,0.10
2023-02-03T01:13:46.248Z,0.10
2023-02-03T01:16:17.263Z,0.10
2023-02-03T01:18:45.120Z,0.30
2023-02-03T01:21:16.576Z,0.20
2023-02-03T01:23:44.455Z,0.95
2023-02-03T01:26:15.762Z,0.10
2023-02-03T01:28:43.091Z,0.10
2023-02-03T01:31:20.732Z,0.10
2023-02-03T01:33:48.822Z,0.10
2023-02-03T01:36:18.552Z,0.10
2023-02-03T01:38:46.352Z,0.10
2023-02-03T01:41:20.817Z,0.10
2023-02-03T01:43:51.464Z,0.00
2023-02-03T01:46:48.127Z,0.10
2023-02-03T01:49:35.520Z,0.10
2023-02-03T01:52:04.070Z,0.10
2023-02-03T01:54:37.723Z,0.13
2023-02-03T01:57:12.973Z,0.00
2023-02-03T01:59:40.639Z,0.55
2023-02-03T02:02:08.617Z,0.50
2023-02-03T02:04:54.119Z,0.10
2023-02-03T02:07:21.184Z,0.10
2023-02-03T02:09:49.010Z,0.10
2023-02-03T02:12:16.094Z,0.10
2023-02-03T02:14:44.927Z,0.20
2023-02-03T02:17:34.965Z,0.10
2023-02-03T02:20:46.163Z,0.10
2023-02-03T02:23:54.885Z,0.10
2023-02-03T02:26:44.876Z,0.63
2023-02-03T02:29:44.006Z,0.10
2023-02-03T02:32:29.500Z,0.10
2023-02-03T02:35:24.166Z,0.45
2023-02-03T02:38:04.357Z,0.10
2023-02-03T02:40:48.419Z,0.52
2023-02-03T02:43:21.627Z,0.10
2023-02-03T02:46:08.822Z,0.10
2023-02-03T02:48:44.581Z,0.20
2023-02-03T02:51:14.499Z,0.10
2023-02-03T02:53:57.975Z,0.10
2023-02-03T02:56:27.960Z,0.10
2023-02-03T02:58:58.580Z,0.10
2023-02-03T03:01:25.825Z,0.10
2023-02-03T03:03:52.983Z,0.10
2023-02-03T03:06:34.982Z,0.10
2023-02-03T03:09:09.665Z,0.10
2023-02-03T03:11:51.617Z,0.10
2023-02-03T03:14:21.192Z,0.55
2023-02-03T03:16:54.843Z,0.10
2023-02-03T03:19:25.823Z,0.10
2023-02-03T03:21:59.154Z,0.05
2023-02-03T03:24:32.762Z,0.10
2023-02-03T03:27:16.968Z,0.10
2023-02-03T03:29:54.712Z,0.20
2023-02-03T03:32:22.559Z,0.10
2023-02-03T03:34:50.491Z,0.10
2023-02-03T03:37:42.696Z,0.10
2023-02-03T03:40:22.064Z,0.10
2023-02-03T03:42:59.473Z,0.10
2023-02-03T03:45:41.150Z,0.10
2023-02-03T03:48:23.303Z,0.45
2023-02-03T03:50:58.246Z,0.10
2023-02-03T03:53:29.215Z,0.10
2023-02-03T03:55:59.179Z,0.10
2023-02-03T03:58:32.110Z,0.10
2023-02-03T04:01:03.587Z,0.10
2023-02-03T04:03:40.149Z,0.10
2023-02-03T04:06:07.784Z,0.10
2023-02-03T04:08:35.067Z,0.10
2023-02-03T04:11:02.110Z,0.10
2023-02-03T04:13:29.201Z,0.10
2023-02-03T04:15:56.207Z,0.10
2023-02-03T04:18:23.285Z,0.10
2023-02-03T04:20:50.732Z,0.10
2023-02-03T04:23:17.966Z,0.10
2023-02-03T04:25:45.059Z,0.10
2023-02-03T04:28:12.119Z,0.10
2023-02-03T04:30:39.532Z,0.10
2023-02-03T04:33:06.670Z,0.10
2023-02-03T04:35:33.769Z,0.10
2023-02-03T04:38:00.837Z,0.10
2023-02-03T04:40:28.212Z,0.10
2023-02-03T04:42:55.414Z,0.10
2023-02-03T04:45:22.388Z,0.05
2023-02-03T04:47:54.501Z,0.10
2023-02-03T04:50:21.789Z,1.00
2023-02-03T04:52:48.873Z,0.10
2023-02-03T04:55:16.002Z,0.10
2023-02-03T04:57:42.952Z,0.52
2023-02-03T05:00:11.169Z,0.10
2023-02-03T05:02:38.187Z,0.10
2023-02-03T05:05:05.755Z,0.10
2023-02-03T05:07:32.714Z,0.10
2023-02-03T05:09:59.688Z,0.10
2023-02-03T05:12:26.762Z,0.10
2023-02-03T05:14:53.771Z,0.20
2023-02-03T05:17:20.763Z,0.45
2023-02-03T05:19:47.759Z,0.10
2023-02-03T05:22:14.719Z,0.20
2023-02-03T05:24:41.782Z,0.10
2023-02-03T05:27:08.738Z,0.10
2023-02-03T05:29:35.829Z,0.10
2023-02-03T05:32:03.096Z,0.10
2023-02-03T05:34:30.232Z,0.85
2023-02-03T05:36:57.231Z,0.10
2023-02-03T05:39:24.191Z,0.10
2023-02-03T05:41:55.916Z,0.10
2023-02-03T05:44:27.300Z,0.10
2023-02-03T05:46:57.594Z,1.05
2023-02-03T05:49:25.592Z,0.32
2023-02-03T05:51:54.369Z,0.10
2023-02-03T05:54:21.578Z,0.10
2023-02-03T05:56:48.668Z,0.10
2023-02-03T05:59:15.779Z,0.10
2023-02-03T06:01:42.974Z,0.00
2023-02-03T06:04:10.459Z,0.10
2023-02-03T06:06:37.575Z,0.20
2023-02-03T06:09:08.680Z,0.10
2023-02-03T06:11:36.821Z,0.10
2023-02-03T06:14:04.904Z,0.00
2023-02-03T06:16:31.983Z,0.10
2023-02-03T06:19:00.909Z,0.20
2023-02-03T06:21:28.510Z,0.10
2023-02-03T06:23:56.750Z,0.10
2023-02-03T06:26:24.167Z,0.10
2023-02-03T06:28:51.225Z,0.10
2023-02-03T06:31:18.243Z,0.10
2023-02-03T06:33:45.317Z,0.10
2023-02-03T06:36:12.345Z,0.10
2023-02-03T06:38:39.364Z,0.10
2023-02-03T06:41:06.431Z,0.10
2023-02-03T06:43:33.798Z,0.10
2023-02-03T06:46:01.036Z,0.05
2023-02-03T06:48:28.046Z,0.10
2023-02-03T06:50:55.710Z,0.10
2023-02-03T06:53:23.123Z,0.00
2023-02-03T06:55:50.032Z,0.10
2023-02-03T06:58:17.169Z,0.08
2023-02-03T07:00:44.598Z,0.10
2023-02-03T07:03:11.550Z,0.00
2023-02-03T07:05:38.629Z,0.10
2023-02-03T07:08:06.241Z,0.10
2023-02-03T07:10:33.155Z,0.10
2023-02-03T07:13:07.465Z,0.10
2023-02-03T07:15:35.674Z,0.00
2023-02-03T07:18:02.665Z,0.10
2023-02-03T07:20:30.156Z,0.00
2023-02-03T07:22:58.622Z,0.00
2023-02-03T07:25:26.028Z,0.00
2023-02-03T07:27:53.325Z,0.30
2023-02-03T07:30:20.731Z,0.10
2023-02-03T07:32:52.176Z,0.00
2023-02-03T07:35:20.320Z,0.10
2023-02-03T07:37:47.318Z,0.10
2023-02-03T07:40:15.564Z,0.10
2023-02-03T07:42:44.432Z,0.10
2023-02-03T07:45:13.209Z,0.10
2023-02-03T07:47:41.708Z,0.10
2023-02-03T07:50:22.106Z,0.10
2023-02-03T07:52:52.106Z,0.10
2023-02-03T07:55:19.235Z,0.10
2023-02-03T07:57:46.450Z,0.00
2023-02-03T08:00:16.308Z,0.25
2023-02-03T08:02:44.083Z,0.10
2023-02-03T08:05:12.817Z,0.10
2023-02-03T08:07:40.932Z,0.10
2023-02-03T08:10:10.972Z,0.10
2023-02-03T08:12:45.128Z,0.00
2023-02-03T08:15:13.140Z,0.10
2023-02-03T08:17:41.485Z,0.20
2023-02-03T08:20:10.487Z,0.10
2023-02-03T08:22:37.712Z,0.10
2023-02-03T08:25:05.824Z,0.63
2023-02-03T08:27:33.281Z,0.10
2023-02-03T08:30:01.142Z,0.10
2023-02-03T08:32:28.505Z,0.10
2023-02-03T08:34:56.130Z,0.10
2023-02-03T08:37:28.337Z,0.10
2023-02-03T08:39:55.504Z,0.10
2023-02-03T08:42:22.434Z,0.10
2023-02-03T08:44:49.541Z,0.08
2023-02-03T08:47:17.347Z,0.10
2023-02-03T08:49:44.451Z,0.43
2023-02-03T08:52:13.576Z,0.10
2023-02-03T08:54:41.533Z,0.45
2023-02-03T08:57:09.130Z,0.00
2023-02-03T08:59:40.340Z,0.10
2023-02-03T09:02:14.307Z,0.10
2023-02-03T09:04:41.370Z,0.10
2023-02-03T09:07:08.647Z,0.10
2023-02-03T09:09:35.783Z,0.10
2023-02-03T09:12:05.420Z,0.10
2023-02-03T09:14:33.703Z,0.13
2023-02-03T09:17:03.471Z,0.10
2023-02-03T09:19:31.127Z,0.10
2023-02-03T09:21:58.308Z,0.10
2023-02-03T09:24:25.751Z,0.10
2023-02-03T09:26:53.285Z,0.10
2023-02-03T09:29:21.321Z,0.00
2023-02-03T09:31:52.865Z,0.10
2023-02-03T09:34:21.099Z,0.10
2023-02-03T09:36:48.429Z,0.10
2023-02-03T09:39:16.043Z,0.00
2023-02-03T09:42:04.250Z,0.10
2023-02-03T09:44:46.561Z,0.00
2023-02-03T09:47:19.956Z,0.00
2023-02-03T09:49:59.335Z,0.10
2023-02-03T09:52:34.381Z,0.10
2023-02-03T09:55:27.577Z,0.10
2023-02-03T09:58:12.696Z,0.10
2023-02-03T10:00:46.697Z,0.85
2023-02-03T10:03:19.644Z,0.10
2023-02-03T10:06:20.593Z,0.10
2023-02-03T10:09:08.389Z,0.20
2023-02-03T10:12:24.501Z,0.10
2023-02-03T10:15:13.077Z,0.10
2023-02-03T10:17:45.887Z,0.08
2023-02-03T10:20:36.376Z,0.10
2023-02-03T10:23:14.154Z,0.10
2023-02-03T10:25:43.619Z,0.10
2023-02-03T10:28:23.782Z,0.10
2023-02-03T10:31:01.830Z,0.10
2023-02-03T10:33:31.972Z,0.00
2023-02-03T10:36:22.926Z,0.10
2023-02-03T10:39:04.431Z,0.00
2023-02-03T10:41:32.110Z,0.03
2023-02-03T10:44:06.260Z,0.10
2023-02-03T10:46:38.451Z,0.10
2023-02-03T10:49:05.808Z,0.10
2023-02-03T10:51:52.731Z,0.00
2023-02-03T10:54:32.383Z,0.10
2023-02-03T10:57:06.043Z,0.00
2023-02-03T10:59:37.148Z,0.00
2023-02-03T11:02:11.043Z,0.32
2023-02-03T11:04:38.874Z,0.10
2023-02-03T11:07:08.426Z,0.10
2023-02-03T11:09:43.032Z,0.65
2023-02-03T11:12:18.776Z,0.85
2023-02-03T11:14:52.640Z,0.10
2023-02-03T11:17:27.401Z,0.10
2023-02-03T11:20:06.439Z,0.10
2023-02-03T11:22:37.650Z,0.10
2023-02-03T11:25:29.911Z,0.10
2023-02-03T11:28:07.056Z,0.10
2023-02-03T11:30:34.229Z,0.50
2023-02-03T11:33:02.547Z,0.60
2023-02-03T11:35:31.962Z,0.10
2023-02-03T11:38:02.587Z,0.10
2023-02-03T11:40:32.602Z,0.10
2023-02-03T11:43:16.362Z,0.10
2023-02-03T11:45:50.839Z,0.00
2023-02-03T11:48:35.376Z,0.10
2023-02-03T11:51:54.319Z,0.10
2023-02-03T11:54:45.185Z,0.00
2023-02-03T11:58:18.371Z,0.10
2023-02-03T12:01:10.381Z,0.10
2023-02-03T12:04:04.362Z,0.10
2023-02-03T12:06:52.191Z,0.00
2023-02-03T12:10:03.037Z,0.00
2023-02-03T12:12:33.769Z,0.10
2023-02-03T12:15:31.531Z,0.10
2023-02-03T12:18:31.001Z,0.00
2023-02-03T12:21:13.669Z,0.15
2023-02-03T12:24:01.168Z,0.30
2023-02-03T12:27:08.107Z,0.00
2023-02-03T12:29:45.445Z,0.10
2023-02-03T12:32:37.892Z,0.10
2023-02-03T12:35:33.039Z,0.10
2023-02-03T12:38:52.781Z,0.10
2023-02-03T12:41:29.320Z,0.10
2023-02-03T12:44:04.401Z,331.35
2023-02-03T12:46:41.078Z,146.25
2023-02-03T12:49:53.097Z,351.90
2023-02-03T12:52:36.723Z,310.85
2023-02-03T12:55:56.051Z,326.42
2023-02-03T12:58:53.560Z,318.67
2023-02-03T13:04:10.737Z,0.00
2023-02-03T13:06:46.493Z,0.10
2023-02-03T13:09:39.998Z,0.10
2023-02-03T13:12:41.788Z,32.05
2023-02-03T13:15:31.914Z,2.53
2023-02-03T13:18:05.678Z,0.30
2023-02-03T13:20:36.776Z,0.22
2023-02-03T13:23:28.533Z,0.55
2023-02-03T13:26:36.148Z,0.30
2023-02-03T13:29:31.791Z,284.55
2023-02-03T13:32:40.873Z,288.88
2023-02-03T13:35:33.850Z,293.83
2023-02-03T13:38:28.844Z,281.50
2023-02-03T13:41:28.649Z,272.33
2023-02-03T13:43:57.898Z,269.33
2023-02-03T13:46:31.190Z,282.02
2023-02-03T13:49:01.914Z,287.92
2023-02-03T13:51:48.649Z,290.50
2023-02-03T13:54:37.711Z,285.65
2023-02-03T13:57:20.512Z,277.20
2023-02-03T13:59:49.737Z,287.88
2023-02-03T14:02:19.790Z,289.50
2023-02-03T14:04:46.915Z,291.85
2023-02-03T14:07:38.083Z,282.77
2023-02-03T14:10:14.429Z,0.30
2023-02-03T14:12:50.503Z,0.40
2023-02-03T14:15:28.286Z,0.10
2023-02-03T14:17:58.250Z,0.10
2023-02-03T14:20:25.180Z,0.17
2023-02-03T14:23:07.055Z,0.10
2023-02-03T14:26:03.327Z,0.10
2023-02-03T14:28:43.033Z,0.10
2023-02-03T14:31:17.539Z,0.10
2023-02-03T14:34:14.484Z,0.10
2023-02-03T14:36:48.287Z,0.00
2023-02-03T14:39:18.354Z,0.10
2023-02-03T14:42:04.854Z,0.10
2023-02-03T14:44:44.291Z,0.20
2023-02-03T14:47:34.093Z,0.10
2023-02-03T14:50:32.825Z,0.20
2023-02-03T14:53:33.607Z,0.00
2023-02-03T14:56:25.294Z,0.10
2023-02-03T14:59:03.360Z,0.10
2023-02-03T15:01:36.165Z,0.10
2023-02-03T15:04:24.880Z,0.10
2023-02-03T15:06:53.510Z,0.10
2023-02-03T15:09:51.694Z,0.10
2023-02-03T15:12:27.645Z,0.10
2023-02-03T15:15:26.567Z,0.10
2023-02-03T15:18:00.046Z,0.30
2023-02-03T15:20:44.319Z,0.10
2023-02-03T15:23:22.940Z,0.10
2023-02-03T15:26:11.067Z,0.10
2023-02-03T15:28:38.085Z,0.25
2023-02-03T15:31:15.472Z,0.20
2023-02-03T15:33:44.671Z,0.10
2023-02-03T15:36:21.896Z,0.10
2023-02-03T15:39:17.340Z,0.05
2023-02-03T15:41:45.420Z,0.10
2023-02-03T15:45:12.499Z,0.10
2023-02-03T15:48:09.520Z,0.10
2023-02-03T15:50:46.011Z,0.10
2023-02-03T15:53:45.262Z,0.20
2023-02-03T15:56:30.829Z,0.10
2023-02-03T15:58:58.891Z,0.10
2023-02-03T16:01:26.778Z,0.10
2023-02-03T16:03:56.497Z,0.10
2023-02-03T16:06:28.048Z,0.10
2023-02-03T16:08:57.222Z,0.10
2023-02-03T16:11:42.571Z,0.10
2023-02-03T16:14:36.445Z,0.10
2023-02-03T16:17:06.274Z,0.75
2023-02-03T16:19:34.657Z,0.10
2023-02-03T16:22:03.544Z,0.10
2023-02-03T16:24:41.299Z,0.10
2023-02-03T16:27:36.229Z,0.10
2023-02-03T16:30:24.618Z,0.10
2023-02-03T16:33:40.232Z,0.00
2023-02-03T16:36:35.758Z,0.10
2023-02-03T16:39:29.528Z,0.10
2023-02-03T16:42:17.973Z,0.10
2023-02-03T16:45:10.247Z,0.25
2023-02-03T16:47:58.158Z,0.57
2023-02-03T16:50:45.085Z,0.10
2023-02-03T16:53:19.844Z,0.10
2023-02-03T16:55:48.304Z,0.32
2023-02-03T16:58:18.925Z,0.10
2023-02-03T17:00:50.487Z,0.40
2023-02-03T17:03:25.581Z,0.20
2023-02-03T17:05:53.871Z,0.20
2023-02-03T17:08:24.742Z,0.05
2023-02-03T17:10:55.016Z,0.00
2023-02-03T17:13:26.346Z,0.10
2023-02-03T17:15:59.257Z,0.10
2023-02-03T17:18:26.781Z,0.10
2023-02-03T17:20:58.664Z,0.20
2023-02-03T17:23:28.409Z,0.20
2023-02-03T17:25:55.995Z,0.10
2023-02-03T17:28:26.651Z,0.10
2023-02-03T17:31:05.996Z,0.20
2023-02-03T17:33:34.958Z,0.15
2023-02-03T17:36:10.652Z,0.10
2023-02-03T17:55:14.302Z,0.10
2023-02-03T17:57:41.614Z,0.10
2023-02-03T18:00:10.711Z,0.10
2023-02-03T18:02:37.927Z,0.10
2023-02-03T18:05:05.443Z,0.10
2023-02-03T18:07:32.548Z,0.10
2023-02-03T18:09:59.542Z,0.00
2023-02-03T18:12:26.576Z,0.10
2023-02-03T18:14:53.606Z,0.10
2023-02-03T18:17:20.604Z,0.10
2023-02-03T18:19:54.799Z,0.10
2023-02-03T18:22:22.881Z,0.10
2023-02-03T18:24:51.889Z,0.00
2023-02-03T18:27:19.753Z,0.10
2023-02-03T18:29:49.588Z,0.10
2023-02-03T18:32:17.505Z,0.13
2023-02-03T18:34:44.816Z,0.10
2023-02-03T18:37:12.498Z,0.00
2023-02-03T18:39:39.710Z,0.13
2023-02-03T18:42:07.460Z,0.10
2023-02-03T18:44:34.885Z,0.00
2023-02-03T18:47:07.048Z,0.00
2023-02-03T18:49:37.718Z,0.00
2023-02-03T18:52:05.138Z,0.00
2023-02-03T18:54:32.529Z,0.10
2023-02-03T18:56:59.993Z,0.10
2023-02-03T18:59:27.593Z,0.10
2023-02-03T19:01:54.749Z,0.10
2023-02-03T19:04:22.516Z,0.10
2023-02-03T19:06:49.923Z,0.00
2023-02-03T19:09:18.138Z,0.17
2023-02-03T19:11:46.187Z,0.10
2023-02-03T19:14:14.700Z,0.10
2023-02-03T19:16:42.088Z,0.10
2023-02-03T19:19:09.737Z,0.10
2023-02-03T19:21:37.007Z,0.10
2023-02-03T19:24:04.936Z,0.10
2023-02-03T19:26:31.912Z,0.10
2023-02-03T19:28:58.875Z,0.10
2023-02-03T19:31:25.937Z,0.10
2023-02-03T19:33:52.983Z,0.10
2023-02-03T19:36:19.922Z,0.10
2023-02-03T19:38:46.885Z,0.17
2023-02-03T19:41:13.927Z,0.25
2023-02-03T19:43:41.036Z,0.10
2023-02-03T19:46:08.604Z,0.10
2023-02-03T19:51:12.227Z,0.50
2023-02-03T19:53:42.719Z,0.25
2023-02-03T19:56:09.734Z,0.10
2023-02-03T19:58:36.823Z,0.20
2023-02-03T20:01:03.844Z,0.28
2023-02-03T20:03:32.660Z,0.10
2023-02-03T20:06:01.029Z,0.10
2023-02-03T20:08:28.689Z,0.10
2023-02-03T20:10:55.632Z,0.10
2023-02-03T20:13:22.755Z,0.05
2023-02-03T20:15:50.075Z,0.13
2023-02-03T20:18:17.138Z,0.10
2023-02-03T20:20:44.119Z,0.10
2023-02-03T20:23:11.463Z,0.10
2023-02-03T20:25:38.555Z,0.45
2023-02-03T20:28:05.777Z,0.13
2023-02-03T20:30:33.150Z,0.10
2023-02-03T20:33:00.551Z,0.20
2023-02-03T20:35:27.746Z,0.30
2023-02-03T20:37:54.917Z,0.30
2023-02-03T20:40:24.088Z,0.30
2023-02-03T20:42:53.155Z,0.15
2023-02-03T20:45:23.001Z,0.10
2023-02-03T20:47:51.164Z,0.10
2023-02-03T20:50:31.685Z,0.68
2023-02-03T20:53:13.753Z,0.30
2023-02-03T20:55:41.067Z,0.10
2023-02-03T20:58:19.520Z,0.20
2023-02-03T21:00:47.803Z,0.20
2023-02-03T21:03:34.763Z,0.20
2023-02-03T21:06:02.515Z,0.10
2023-02-03T21:08:29.689Z,0.10
2023-02-03T21:10:56.740Z,0.10
2023-02-03T21:13:23.643Z,0.10
2023-02-03T21:15:53.666Z,0.10
2023-02-03T21:18:37.479Z,0.10
2023-02-03T21:21:11.908Z,0.20
2023-02-03T21:23:42.436Z,0.10
2023-02-03T21:26:35.777Z,0.10
2023-02-03T21:29:02.949Z,0.10
2023-02-03T21:31:33.136Z,0.50
2023-02-03T21:34:10.514Z,0.10
2023-02-03T21:36:38.622Z,0.10
2023-02-03T21:39:34.061Z,0.10
2023-02-03T21:42:41.427Z,0.10
2023-02-03T21:45:42.229Z,0.17
2023-02-03T21:48:25.580Z,0.10
2023-02-03T21:50:55.356Z,0.38
2023-02-03T21:53:35.764Z,0.10
2023-02-03T21:56:29.197Z,0.10
2023-02-03T21:58:58.939Z,0.20
2023-02-03T22:01:28.283Z,0.20
2023-02-03T22:03:56.199Z,0.15
2023-02-03T22:06:29.805Z,0.10
2023-02-03T22:08:58.489Z,0.20
2023-02-03T22:11:29.742Z,0.25
2023-02-03T22:13:57.681Z,0.10
2023-02-03T22:16:24.916Z,0.20
2023-02-03T22:18:52.483Z,0.10
2023-02-03T22:21:19.629Z,0.10
2023-02-03T22:23:47.282Z,0.10
2023-02-03T22:26:15.679Z,0.10
2023-02-03T22:28:43.522Z,0.10
2023-02-03T22:31:13.145Z,0.10
2023-02-03T22:33:41.413Z,0.10
2023-02-03T22:36:10.284Z,0.10
2023-02-03T22:38:38.846Z,0.10
2023-02-03T22:41:07.623Z,0.10
2023-02-03T22:43:35.492Z,0.10
2023-02-03T22:46:02.649Z,0.08
2023-02-03T22:48:29.756Z,0.20
2023-02-03T22:50:58.345Z,0.10
2023-02-03T22:53:26.482Z,0.10
2023-02-03T22:55:53.605Z,0.10
2023-02-03T22:58:20.627Z,0.10
2023-02-03T23:00:47.689Z,0.10
2023-02-03T23:03:14.709Z,0.10
2023-02-03T23:05:41.688Z,0.10
2023-02-03T23:08:09.770Z,0.10
2023-02-03T23:10:36.993Z,0.10
2023-02-03T23:13:04.104Z,0.10
2023-02-03T23:15:31.110Z,0.10
2023-02-03T23:18:01.139Z,0.10
2023-02-03T23:20:28.425Z,0.20
2023-02-03T23:22:55.551Z,0.20
2023-02-03T23:25:22.598Z,0.30
2023-02-03T23:27:49.613Z,0.20
2023-02-03T23:30:17.160Z,0.20
2023-02-03T23:32:44.276Z,0.30
2023-02-03T23:35:30.368Z,0.20
2023-02-03T23:37:57.340Z,0.20
2023-02-03T23:40:24.340Z,0.20
2023-02-03T23:42:51.315Z,0.20
2023-02-03T23:45:18.615Z,0.20
2023-02-03T23:47:46.623Z,0.20
2023-02-03T23:50:18.992Z,0.30
2023-02-03T23:52:46.929Z,0.30
2023-02-03T23:55:18.412Z,0.30
2023-02-03T23:57:46.211Z,0.30
